sensor_id;sensor_type;location;lat;lon;timestamp;P1;durP1;ratioP1;P2;durP2;ratioP2
38208;SDS011;24016;52.102;11.584;2022-12-07T00:01:13;48.47;;;23.52;;
38208;SDS011;24016;52.102;11.584;2022-12-07T00:03:54;50.10;;;23.35;;
38208;SDS011;24016;52.102;11.584;2022-12-07T00:06:25;56.70;;;24.50;;
38208;SDS011;24016;52.102;11.584;2022-12-07T00:08:51;56.30;;;24.63;;
38208;SDS011;24016;52.102;11.584;2022-12-07T00:11:18;44.78;;;22.20;;
38208;SDS011;24016;52.102;11.584;2022-12-07T00:13:45;57.78;;;25.02;;
38208;SDS011;24016;52.102;11.584;2022-12-07T00:16:16;51.10;;;22.30;;
38208;SDS011;24016;52.102;11.584;2022-12-07T00:18:43;53.22;;;22.63;;
38208;SDS011;24016;52.102;11.584;2022-12-07T00:21:11;53.92;;;23.67;;
38208;SDS011;24016;52.102;11.584;2022-12-07T00:23:37;54.60;;;23.98;;
38208;SDS011;24016;52.102;11.584;2022-12-07T00:26:12;50.72;;;22.45;;
38208;SDS011;24016;52.102;11.584;2022-12-07T00:28:39;50.15;;;23.38;;
38208;SDS011;24016;52.102;11.584;2022-12-07T00:31:07;45.25;;;22.25;;
38208;SDS011;24016;52.102;11.584;2022-12-07T00:33:34;51.03;;;23.23;;
38208;SDS011;24016;52.102;11.584;2022-12-07T00:36:01;46.28;;;21.60;;
38208;SDS011;24016;52.102;11.584;2022-12-07T00:38:29;47.97;;;22.02;;
38208;SDS011;24016;52.102;11.584;2022-12-07T00:40:57;43.38;;;21.35;;
38208;SDS011;24016;52.102;11.584;2022-12-07T00:43:24;42.92;;;21.00;;
38208;SDS011;24016;52.102;11.584;2022-12-07T00:45:50;40.55;;;21.38;;
38208;SDS011;24016;52.102;11.584;2022-12-07T00:48:16;47.20;;;21.75;;
38208;SDS011;24016;52.102;11.584;2022-12-07T00:50:41;44.13;;;22.33;;
38208;SDS011;24016;52.102;11.584;2022-12-07T00:53:07;43.55;;;21.73;;
38208;SDS011;24016;52.102;11.584;2022-12-07T00:55:33;40.30;;;21.38;;
38208;SDS011;24016;52.102;11.584;2022-12-07T00:57:59;43.17;;;21.48;;
38208;SDS011;24016;52.102;11.584;2022-12-07T01:00:25;45.00;;;22.48;;
38208;SDS011;24016;52.102;11.584;2022-12-07T01:02:50;44.60;;;22.63;;
38208;SDS011;24016;52.102;11.584;2022-12-07T01:05:16;43.15;;;21.92;;
38208;SDS011;24016;52.102;11.584;2022-12-07T01:07:42;38.78;;;21.77;;
38208;SDS011;24016;52.102;11.584;2022-12-07T01:10:08;40.00;;;22.05;;
38208;SDS011;24016;52.102;11.584;2022-12-07T01:12:33;37.88;;;21.33;;
38208;SDS011;24016;52.102;11.584;2022-12-07T01:14:59;34.38;;;20.50;;
38208;SDS011;24016;52.102;11.584;2022-12-07T01:17:25;36.10;;;20.90;;
38208;SDS011;24016;52.102;11.584;2022-12-07T01:19:50;37.03;;;21.27;;
38208;SDS011;24016;52.102;11.584;2022-12-07T01:22:16;35.03;;;20.58;;
38208;SDS011;24016;52.102;11.584;2022-12-07T01:24:41;36.47;;;20.15;;
38208;SDS011;24016;52.102;11.584;2022-12-07T01:27:07;36.65;;;20.25;;
38208;SDS011;24016;52.102;11.584;2022-12-07T01:29:32;35.72;;;21.13;;
38208;SDS011;24016;52.102;11.584;2022-12-07T01:31:58;35.63;;;20.75;;
38208;SDS011;24016;52.102;11.584;2022-12-07T01:34:24;35.22;;;19.73;;
38208;SDS011;24016;52.102;11.584;2022-12-07T01:36:49;33.75;;;21.35;;
38208;SDS011;24016;52.102;11.584;2022-12-07T01:39:15;29.90;;;18.23;;
38208;SDS011;24016;52.102;11.584;2022-12-07T01:41:40;30.77;;;19.98;;
38208;SDS011;24016;52.102;11.584;2022-12-07T01:46:43;28.77;;;19.38;;
38208;SDS011;24016;52.102;11.584;2022-12-07T01:52:00;29.48;;;19.13;;
38208;SDS011;24016;52.102;11.584;2022-12-07T01:54:37;31.45;;;18.42;;
38208;SDS011;24016;52.102;11.584;2022-12-07T01:57:03;29.52;;;19.15;;
38208;SDS011;24016;52.102;11.584;2022-12-07T01:59:31;28.98;;;18.48;;
38208;SDS011;24016;52.102;11.584;2022-12-07T02:01:57;31.48;;;19.83;;
38208;SDS011;24016;52.102;11.584;2022-12-07T02:04:23;29.50;;;19.00;;
38208;SDS011;24016;52.102;11.584;2022-12-07T02:06:49;31.30;;;19.60;;
38208;SDS011;24016;52.102;11.584;2022-12-07T02:09:15;31.95;;;20.15;;
38208;SDS011;24016;52.102;11.584;2022-12-07T02:11:41;27.58;;;17.80;;
38208;SDS011;24016;52.102;11.584;2022-12-07T02:14:07;27.63;;;18.42;;
38208;SDS011;24016;52.102;11.584;2022-12-07T02:16:36;31.08;;;19.88;;
38208;SDS011;24016;52.102;11.584;2022-12-07T02:21:57;34.33;;;20.45;;
38208;SDS011;24016;52.102;11.584;2022-12-07T02:27:10;29.50;;;20.58;;
38208;SDS011;24016;52.102;11.584;2022-12-07T02:35:32;33.53;;;21.15;;
38208;SDS011;24016;52.102;11.584;2022-12-07T02:38:02;33.97;;;21.10;;
38208;SDS011;24016;52.102;11.584;2022-12-07T02:40:48;30.15;;;20.10;;
38208;SDS011;24016;52.102;11.584;2022-12-07T02:43:19;36.95;;;22.02;;
38208;SDS011;24016;52.102;11.584;2022-12-07T02:45:52;38.63;;;23.40;;
38208;SDS011;24016;52.102;11.584;2022-12-07T02:48:21;35.53;;;21.80;;
38208;SDS011;24016;52.102;11.584;2022-12-07T02:50:48;33.95;;;21.67;;
38208;SDS011;24016;52.102;11.584;2022-12-07T02:53:34;35.53;;;22.05;;
38208;SDS011;24016;52.102;11.584;2022-12-07T02:59:07;34.30;;;22.17;;
38208;SDS011;24016;52.102;11.584;2022-12-07T03:01:59;33.30;;;20.63;;
38208;SDS011;24016;52.102;11.584;2022-12-07T03:12:37;33.67;;;21.88;;
38208;SDS011;24016;52.102;11.584;2022-12-07T03:15:31;32.42;;;20.75;;
38208;SDS011;24016;52.102;11.584;2022-12-07T03:18:00;32.53;;;20.42;;
38208;SDS011;24016;52.102;11.584;2022-12-07T03:20:28;29.48;;;19.30;;
38208;SDS011;24016;52.102;11.584;2022-12-07T03:22:54;31.60;;;20.70;;
38208;SDS011;24016;52.102;11.584;2022-12-07T03:25:22;31.13;;;20.15;;
38208;SDS011;24016;52.102;11.584;2022-12-07T03:28:02;32.42;;;20.45;;
38208;SDS011;24016;52.102;11.584;2022-12-07T03:30:36;29.48;;;18.80;;
38208;SDS011;24016;52.102;11.584;2022-12-07T03:33:11;28.35;;;18.98;;
38208;SDS011;24016;52.102;11.584;2022-12-07T03:35:39;29.83;;;21.02;;
38208;SDS011;24016;52.102;11.584;2022-12-07T03:38:18;28.75;;;19.10;;
38208;SDS011;24016;52.102;11.584;2022-12-07T03:40:52;26.15;;;18.92;;
38208;SDS011;24016;52.102;11.584;2022-12-07T03:43:20;27.85;;;18.58;;
38208;SDS011;24016;52.102;11.584;2022-12-07T03:45:51;29.25;;;19.50;;
38208;SDS011;24016;52.102;11.584;2022-12-07T03:48:24;23.40;;;17.70;;
38208;SDS011;24016;52.102;11.584;2022-12-07T03:50:57;28.20;;;19.38;;
38208;SDS011;24016;52.102;11.584;2022-12-07T03:53:35;23.77;;;18.00;;
38208;SDS011;24016;52.102;11.584;2022-12-07T03:56:09;27.02;;;18.85;;
38208;SDS011;24016;52.102;11.584;2022-12-07T03:58:36;28.80;;;19.70;;
38208;SDS011;24016;52.102;11.584;2022-12-07T04:01:03;24.98;;;18.92;;
38208;SDS011;24016;52.102;11.584;2022-12-07T04:03:28;24.50;;;18.45;;
38208;SDS011;24016;52.102;11.584;2022-12-07T04:05:54;23.83;;;17.83;;
38208;SDS011;24016;52.102;11.584;2022-12-07T04:08:20;26.77;;;18.60;;
38208;SDS011;24016;52.102;11.584;2022-12-07T04:10:45;29.00;;;19.95;;
38208;SDS011;24016;52.102;11.584;2022-12-07T04:13:11;24.73;;;18.88;;
38208;SDS011;24016;52.102;11.584;2022-12-07T04:15:36;30.10;;;20.27;;
38208;SDS011;24016;52.102;11.584;2022-12-07T04:18:02;29.60;;;20.95;;
38208;SDS011;24016;52.102;11.584;2022-12-07T04:20:28;28.40;;;19.83;;
38208;SDS011;24016;52.102;11.584;2022-12-07T04:22:53;30.23;;;21.40;;
38208;SDS011;24016;52.102;11.584;2022-12-07T04:25:19;30.60;;;21.42;;
38208;SDS011;24016;52.102;11.584;2022-12-07T04:27:44;28.60;;;21.83;;
38208;SDS011;24016;52.102;11.584;2022-12-07T04:30:10;28.73;;;21.77;;
38208;SDS011;24016;52.102;11.584;2022-12-07T04:32:35;31.30;;;23.52;;
38208;SDS011;24016;52.102;11.584;2022-12-07T04:35:01;30.73;;;23.20;;
38208;SDS011;24016;52.102;11.584;2022-12-07T04:37:27;32.33;;;24.40;;
38208;SDS011;24016;52.102;11.584;2022-12-07T04:39:53;31.90;;;25.02;;
38208;SDS011;24016;52.102;11.584;2022-12-07T04:42:19;33.10;;;24.42;;
38208;SDS011;24016;52.102;11.584;2022-12-07T04:44:44;29.42;;;22.52;;
38208;SDS011;24016;52.102;11.584;2022-12-07T04:47:10;31.17;;;24.05;;
38208;SDS011;24016;52.102;11.584;2022-12-07T04:49:35;30.33;;;24.45;;
38208;SDS011;24016;52.102;11.584;2022-12-07T04:52:01;31.67;;;24.77;;
38208;SDS011;24016;52.102;11.584;2022-12-07T04:54:26;32.85;;;23.40;;
38208;SDS011;24016;52.102;11.584;2022-12-07T04:56:52;32.72;;;24.75;;
38208;SDS011;24016;52.102;11.584;2022-12-07T04:59:17;31.23;;;24.15;;
38208;SDS011;24016;52.102;11.584;2022-12-07T05:01:43;30.10;;;23.25;;
38208;SDS011;24016;52.102;11.584;2022-12-07T05:04:09;32.75;;;23.98;;
38208;SDS011;24016;52.102;11.584;2022-12-07T05:06:35;31.17;;;24.60;;
38208;SDS011;24016;52.102;11.584;2022-12-07T05:09:01;30.58;;;23.15;;
38208;SDS011;24016;52.102;11.584;2022-12-07T05:11:27;31.23;;;24.20;;
38208;SDS011;24016;52.102;11.584;2022-12-07T05:16:47;34.90;;;23.03;;
38208;SDS011;24016;52.102;11.584;2022-12-07T05:19:15;31.88;;;22.95;;
38208;SDS011;24016;52.102;11.584;2022-12-07T05:21:41;29.40;;;21.73;;
38208;SDS011;24016;52.102;11.584;2022-12-07T05:24:07;31.23;;;22.55;;
38208;SDS011;24016;52.102;11.584;2022-12-07T05:26:35;30.20;;;22.58;;
38208;SDS011;24016;52.102;11.584;2022-12-07T05:29:01;28.15;;;21.50;;
38208;SDS011;24016;52.102;11.584;2022-12-07T05:31:27;30.15;;;21.35;;
38208;SDS011;24016;52.102;11.584;2022-12-07T05:33:53;29.83;;;21.20;;
38208;SDS011;24016;52.102;11.584;2022-12-07T05:36:19;30.15;;;22.52;;
38208;SDS011;24016;52.102;11.584;2022-12-07T05:38:44;32.42;;;21.90;;
38208;SDS011;24016;52.102;11.584;2022-12-07T05:41:11;26.67;;;21.00;;
38208;SDS011;24016;52.102;11.584;2022-12-07T05:43:59;27.08;;;22.38;;
38208;SDS011;24016;52.102;11.584;2022-12-07T05:46:24;29.52;;;20.92;;
38208;SDS011;24016;52.102;11.584;2022-12-07T05:48:50;28.00;;;21.25;;
38208;SDS011;24016;52.102;11.584;2022-12-07T05:51:16;32.78;;;24.15;;
38208;SDS011;24016;52.102;11.584;2022-12-07T05:53:42;37.17;;;24.55;;
38208;SDS011;24016;52.102;11.584;2022-12-07T05:56:07;33.28;;;25.27;;
38208;SDS011;24016;52.102;11.584;2022-12-07T05:58:33;34.20;;;25.10;;
38208;SDS011;24016;52.102;11.584;2022-12-07T06:01:17;37.30;;;26.08;;
38208;SDS011;24016;52.102;11.584;2022-12-07T06:03:43;40.80;;;26.92;;
38208;SDS011;24016;52.102;11.584;2022-12-07T06:06:09;37.83;;;26.52;;
38208;SDS011;24016;52.102;11.584;2022-12-07T06:08:35;44.22;;;26.73;;
38208;SDS011;24016;52.102;11.584;2022-12-07T06:11:01;41.83;;;26.55;;
38208;SDS011;24016;52.102;11.584;2022-12-07T06:13:45;42.72;;;27.38;;
38208;SDS011;24016;52.102;11.584;2022-12-07T06:16:11;42.97;;;27.52;;
38208;SDS011;24016;52.102;11.584;2022-12-07T06:18:36;43.40;;;28.00;;
38208;SDS011;24016;52.102;11.584;2022-12-07T06:21:02;50.08;;;28.77;;
38208;SDS011;24016;52.102;11.584;2022-12-07T06:23:27;43.78;;;27.30;;
38208;SDS011;24016;52.102;11.584;2022-12-07T06:25:53;43.65;;;27.25;;
38208;SDS011;24016;52.102;11.584;2022-12-07T06:28:18;51.75;;;28.45;;
38208;SDS011;24016;52.102;11.584;2022-12-07T06:30:44;41.67;;;25.77;;
38208;SDS011;24016;52.102;11.584;2022-12-07T06:33:09;43.92;;;27.63;;
38208;SDS011;24016;52.102;11.584;2022-12-07T06:35:35;48.67;;;27.80;;
38208;SDS011;24016;52.102;11.584;2022-12-07T06:38:01;44.35;;;26.02;;
38208;SDS011;24016;52.102;11.584;2022-12-07T06:40:26;45.53;;;27.23;;
38208;SDS011;24016;52.102;11.584;2022-12-07T06:42:52;38.75;;;25.05;;
38208;SDS011;24016;52.102;11.584;2022-12-07T06:45:17;48.40;;;26.15;;
38208;SDS011;24016;52.102;11.584;2022-12-07T06:47:43;40.75;;;24.27;;
38208;SDS011;24016;52.102;11.584;2022-12-07T06:50:08;36.15;;;23.60;;
38208;SDS011;24016;52.102;11.584;2022-12-07T06:52:34;30.55;;;21.00;;
38208;SDS011;24016;52.102;11.584;2022-12-07T06:54:59;29.98;;;20.75;;
38208;SDS011;24016;52.102;11.584;2022-12-07T06:57:25;29.75;;;18.80;;
38208;SDS011;24016;52.102;11.584;2022-12-07T06:59:51;29.60;;;18.20;;
38208;SDS011;24016;52.102;11.584;2022-12-07T07:02:17;21.40;;;16.20;;
38208;SDS011;24016;52.102;11.584;2022-12-07T07:04:42;24.08;;;16.13;;
38208;SDS011;24016;52.102;11.584;2022-12-07T07:07:08;20.70;;;15.20;;
38208;SDS011;24016;52.102;11.584;2022-12-07T07:09:34;18.30;;;13.18;;
38208;SDS011;24016;52.102;11.584;2022-12-07T07:11:59;16.98;;;12.50;;
38208;SDS011;24016;52.102;11.584;2022-12-07T07:14:25;14.98;;;12.52;;
38208;SDS011;24016;52.102;11.584;2022-12-07T07:16:50;19.60;;;12.75;;
38208;SDS011;24016;52.102;11.584;2022-12-07T07:19:16;15.13;;;11.52;;
38208;SDS011;24016;52.102;11.584;2022-12-07T07:21:42;13.38;;;11.52;;
38208;SDS011;24016;52.102;11.584;2022-12-07T07:24:07;15.73;;;10.65;;
38208;SDS011;24016;52.102;11.584;2022-12-07T07:26:33;16.67;;;10.80;;
38208;SDS011;24016;52.102;11.584;2022-12-07T07:28:58;15.35;;;10.90;;
38208;SDS011;24016;52.102;11.584;2022-12-07T07:31:24;14.85;;;11.02;;
38208;SDS011;24016;52.102;11.584;2022-12-07T07:33:49;17.88;;;11.00;;
38208;SDS011;24016;52.102;11.584;2022-12-07T07:36:15;16.95;;;11.95;;
38208;SDS011;24016;52.102;11.584;2022-12-07T07:38:40;18.27;;;12.00;;
38208;SDS011;24016;52.102;11.584;2022-12-07T07:41:06;20.67;;;12.65;;
38208;SDS011;24016;52.102;11.584;2022-12-07T07:43:32;15.18;;;11.65;;
38208;SDS011;24016;52.102;11.584;2022-12-07T07:45:57;17.95;;;11.35;;
38208;SDS011;24016;52.102;11.584;2022-12-07T07:48:23;15.82;;;11.80;;
38208;SDS011;24016;52.102;11.584;2022-12-07T07:50:50;18.25;;;11.60;;
38208;SDS011;24016;52.102;11.584;2022-12-07T07:53:15;13.82;;;10.75;;
38208;SDS011;24016;52.102;11.584;2022-12-07T07:55:41;15.73;;;11.10;;
38208;SDS011;24016;52.102;11.584;2022-12-07T07:58:14;15.75;;;11.00;;
38208;SDS011;24016;52.102;11.584;2022-12-07T08:00:40;17.80;;;11.65;;
38208;SDS011;24016;52.102;11.584;2022-12-07T08:03:05;17.48;;;11.57;;
38208;SDS011;24016;52.102;11.584;2022-12-07T08:05:31;18.23;;;11.57;;
38208;SDS011;24016;52.102;11.584;2022-12-07T08:07:57;15.80;;;11.30;;
38208;SDS011;24016;52.102;11.584;2022-12-07T08:10:22;13.73;;;10.13;;
38208;SDS011;24016;52.102;11.584;2022-12-07T08:12:48;16.70;;;10.05;;
38208;SDS011;24016;52.102;11.584;2022-12-07T08:15:32;14.93;;;10.00;;
38208;SDS011;24016;52.102;11.584;2022-12-07T08:17:58;17.73;;;10.68;;
38208;SDS011;24016;52.102;11.584;2022-12-07T08:20:24;16.75;;;11.38;;
38208;SDS011;24016;52.102;11.584;2022-12-07T08:22:50;16.80;;;11.32;;
38208;SDS011;24016;52.102;11.584;2022-12-07T08:25:16;15.23;;;12.13;;
38208;SDS011;24016;52.102;11.584;2022-12-07T08:27:42;17.20;;;13.00;;
38208;SDS011;24016;52.102;11.584;2022-12-07T08:30:08;18.77;;;13.55;;
38208;SDS011;24016;52.102;11.584;2022-12-07T08:32:33;20.73;;;14.27;;
38208;SDS011;24016;52.102;11.584;2022-12-07T08:34:59;16.50;;;12.57;;
38208;SDS011;24016;52.102;11.584;2022-12-07T08:37:24;16.45;;;12.13;;
38208;SDS011;24016;52.102;11.584;2022-12-07T08:39:50;11.15;;;9.52;;
38208;SDS011;24016;52.102;11.584;2022-12-07T08:42:15;13.10;;;9.50;;
38208;SDS011;24016;52.102;11.584;2022-12-07T08:44:41;9.27;;;8.10;;
38208;SDS011;24016;52.102;11.584;2022-12-07T08:47:07;8.15;;;6.88;;
38208;SDS011;24016;52.102;11.584;2022-12-07T08:49:36;8.95;;;6.70;;
38208;SDS011;24016;52.102;11.584;2022-12-07T08:52:08;9.32;;;5.32;;
38208;SDS011;24016;52.102;11.584;2022-12-07T08:54:35;7.55;;;4.25;;
38208;SDS011;24016;52.102;11.584;2022-12-07T08:57:03;5.82;;;4.07;;
38208;SDS011;24016;52.102;11.584;2022-12-07T08:59:31;4.85;;;3.80;;
38208;SDS011;24016;52.102;11.584;2022-12-07T09:01:59;8.40;;;4.25;;
38208;SDS011;24016;52.102;11.584;2022-12-07T09:04:25;7.28;;;4.90;;
38208;SDS011;24016;52.102;11.584;2022-12-07T09:06:51;9.25;;;4.93;;
38208;SDS011;24016;52.102;11.584;2022-12-07T09:09:16;7.00;;;4.53;;
38208;SDS011;24016;52.102;11.584;2022-12-07T09:11:42;4.85;;;3.63;;
38208;SDS011;24016;52.102;11.584;2022-12-07T09:14:10;6.07;;;4.18;;
38208;SDS011;24016;52.102;11.584;2022-12-07T09:16:37;6.22;;;3.75;;
38208;SDS011;24016;52.102;11.584;2022-12-07T09:19:02;5.57;;;3.85;;
38208;SDS011;24016;52.102;11.584;2022-12-07T09:21:28;6.47;;;3.80;;
38208;SDS011;24016;52.102;11.584;2022-12-07T09:23:54;4.85;;;3.47;;
38208;SDS011;24016;52.102;11.584;2022-12-07T09:26:19;5.30;;;3.78;;
38208;SDS011;24016;52.102;11.584;2022-12-07T09:28:45;5.93;;;3.38;;
38208;SDS011;24016;52.102;11.584;2022-12-07T09:31:10;5.28;;;2.80;;
38208;SDS011;24016;52.102;11.584;2022-12-07T09:33:36;5.75;;;2.97;;
38208;SDS011;24016;52.102;11.584;2022-12-07T09:36:02;5.22;;;3.58;;
38208;SDS011;24016;52.102;11.584;2022-12-07T09:38:29;6.43;;;4.05;;
38208;SDS011;24016;52.102;11.584;2022-12-07T09:40:55;6.57;;;3.80;;
38208;SDS011;24016;52.102;11.584;2022-12-07T09:43:24;7.75;;;4.63;;
38208;SDS011;24016;52.102;11.584;2022-12-07T09:45:51;6.13;;;4.90;;
38208;SDS011;24016;52.102;11.584;2022-12-07T09:48:20;6.30;;;5.38;;
38208;SDS011;24016;52.102;11.584;2022-12-07T09:50:50;9.35;;;6.43;;
38208;SDS011;24016;52.102;11.584;2022-12-07T09:55:55;10.23;;;7.65;;
38208;SDS011;24016;52.102;11.584;2022-12-07T09:58:25;9.75;;;6.82;;
38208;SDS011;24016;52.102;11.584;2022-12-07T10:03:20;11.02;;;7.68;;
38208;SDS011;24016;52.102;11.584;2022-12-07T10:05:47;10.98;;;8.00;;
38208;SDS011;24016;52.102;11.584;2022-12-07T10:08:15;13.73;;;8.40;;
38208;SDS011;24016;52.102;11.584;2022-12-07T10:10:42;10.25;;;9.02;;
38208;SDS011;24016;52.102;11.584;2022-12-07T10:13:10;11.73;;;8.35;;
38208;SDS011;24016;52.102;11.584;2022-12-07T10:15:53;11.48;;;6.97;;
38208;SDS011;24016;52.102;11.584;2022-12-07T10:23:58;12.82;;;7.88;;
38208;SDS011;24016;52.102;11.584;2022-12-07T10:26:26;10.27;;;7.95;;
38208;SDS011;24016;52.102;11.584;2022-12-07T10:29:01;11.93;;;8.93;;
38208;SDS011;24016;52.102;11.584;2022-12-07T10:31:37;15.60;;;9.38;;
38208;SDS011;24016;52.102;11.584;2022-12-07T10:34:11;11.38;;;9.20;;
38208;SDS011;24016;52.102;11.584;2022-12-07T10:36:47;11.15;;;7.93;;
38208;SDS011;24016;52.102;11.584;2022-12-07T10:39:13;9.98;;;7.15;;
38208;SDS011;24016;52.102;11.584;2022-12-07T10:42:00;8.43;;;4.88;;
38208;SDS011;24016;52.102;11.584;2022-12-07T10:44:28;8.23;;;4.40;;
38208;SDS011;24016;52.102;11.584;2022-12-07T10:46:58;7.15;;;4.13;;
38208;SDS011;24016;52.102;11.584;2022-12-07T10:52:30;6.90;;;4.30;;
38208;SDS011;24016;52.102;11.584;2022-12-07T10:55:16;6.68;;;4.60;;
38208;SDS011;24016;52.102;11.584;2022-12-07T10:57:48;6.70;;;4.93;;
38208;SDS011;24016;52.102;11.584;2022-12-07T11:00:25;11.23;;;6.90;;
38208;SDS011;24016;52.102;11.584;2022-12-07T11:11:13;11.63;;;7.00;;
38208;SDS011;24016;52.102;11.584;2022-12-07T11:13:48;8.20;;;6.13;;
38208;SDS011;24016;52.102;11.584;2022-12-07T11:16:23;7.47;;;5.60;;
38208;SDS011;24016;52.102;11.584;2022-12-07T11:19:23;9.45;;;6.05;;
38208;SDS011;24016;52.102;11.584;2022-12-07T11:22:13;11.18;;;7.15;;
38208;SDS011;24016;52.102;11.584;2022-12-07T11:24:53;11.85;;;6.55;;
38208;SDS011;24016;52.102;11.584;2022-12-07T11:30:34;9.68;;;7.10;;
38208;SDS011;24016;52.102;11.584;2022-12-07T11:35:56;9.57;;;6.65;;
38208;SDS011;24016;52.102;11.584;2022-12-07T11:38:47;10.30;;;6.65;;
38208;SDS011;24016;52.102;11.584;2022-12-07T11:41:20;10.13;;;6.43;;
38208;SDS011;24016;52.102;11.584;2022-12-07T11:43:53;10.38;;;6.45;;
38208;SDS011;24016;52.102;11.584;2022-12-07T11:46:54;9.60;;;6.75;;
38208;SDS011;24016;52.102;11.584;2022-12-07T11:49:37;9.40;;;6.72;;
38208;SDS011;24016;52.102;11.584;2022-12-07T11:52:12;11.05;;;7.00;;
38208;SDS011;24016;52.102;11.584;2022-12-07T11:54:51;9.35;;;5.88;;
38208;SDS011;24016;52.102;11.584;2022-12-07T11:57:42;11.90;;;6.35;;
38208;SDS011;24016;52.102;11.584;2022-12-07T12:00:12;9.13;;;5.85;;
38208;SDS011;24016;52.102;11.584;2022-12-07T12:02:43;7.70;;;5.57;;
38208;SDS011;24016;52.102;11.584;2022-12-07T12:05:21;6.82;;;4.97;;
38208;SDS011;24016;52.102;11.584;2022-12-07T12:07:51;7.80;;;4.70;;
38208;SDS011;24016;52.102;11.584;2022-12-07T12:19:11;7.57;;;4.30;;
38208;SDS011;24016;52.102;11.584;2022-12-07T12:21:47;9.25;;;4.47;;
38208;SDS011;24016;52.102;11.584;2022-12-07T12:24:19;6.47;;;4.32;;
38208;SDS011;24016;52.102;11.584;2022-12-07T12:26:50;11.82;;;4.55;;
38208;SDS011;24016;52.102;11.584;2022-12-07T12:29:38;6.38;;;4.22;;
38208;SDS011;24016;52.102;11.584;2022-12-07T12:32:07;12.70;;;4.90;;
38208;SDS011;24016;52.102;11.584;2022-12-07T12:34:57;8.75;;;4.68;;
38208;SDS011;24016;52.102;11.584;2022-12-07T12:37:42;8.88;;;4.50;;
38208;SDS011;24016;52.102;11.584;2022-12-07T12:40:37;7.55;;;4.57;;
38208;SDS011;24016;52.102;11.584;2022-12-07T12:43:27;9.70;;;5.22;;
38208;SDS011;24016;52.102;11.584;2022-12-07T12:51:41;11.65;;;6.45;;
38208;SDS011;24016;52.102;11.584;2022-12-07T12:54:30;8.82;;;5.88;;
38208;SDS011;24016;52.102;11.584;2022-12-07T13:00:02;7.57;;;6.25;;
38208;SDS011;24016;52.102;11.584;2022-12-07T13:02:56;11.38;;;7.25;;
38208;SDS011;24016;52.102;11.584;2022-12-07T13:05:30;9.52;;;6.90;;
38208;SDS011;24016;52.102;11.584;2022-12-07T13:08:00;10.40;;;6.28;;
38208;SDS011;24016;52.102;11.584;2022-12-07T13:12:56;8.82;;;3.38;;
38208;SDS011;24016;52.102;11.584;2022-12-07T13:20:56;6.53;;;2.00;;
38208;SDS011;24016;52.102;11.584;2022-12-07T13:23:25;4.70;;;1.67;;
38208;SDS011;24016;52.102;11.584;2022-12-07T13:28:41;4.05;;;1.90;;
38208;SDS011;24016;52.102;11.584;2022-12-07T13:33:46;5.18;;;1.83;;
38208;SDS011;24016;52.102;11.584;2022-12-07T13:36:14;5.32;;;2.40;;
38208;SDS011;24016;52.102;11.584;2022-12-07T13:38:50;7.40;;;2.75;;
38208;SDS011;24016;52.102;11.584;2022-12-07T13:41:18;6.60;;;2.53;;
38208;SDS011;24016;52.102;11.584;2022-12-07T13:43:49;7.05;;;2.88;;
38208;SDS011;24016;52.102;11.584;2022-12-07T13:46:17;6.10;;;3.28;;
38208;SDS011;24016;52.102;11.584;2022-12-07T13:48:49;7.35;;;4.10;;
38208;SDS011;24016;52.102;11.584;2022-12-07T13:51:23;7.40;;;3.75;;
38208;SDS011;24016;52.102;11.584;2022-12-07T13:54:09;7.18;;;3.75;;
38208;SDS011;24016;52.102;11.584;2022-12-07T13:56:36;6.43;;;4.15;;
38208;SDS011;24016;52.102;11.584;2022-12-07T13:59:04;8.40;;;4.43;;
38208;SDS011;24016;52.102;11.584;2022-12-07T14:01:37;6.97;;;4.45;;
38208;SDS011;24016;52.102;11.584;2022-12-07T14:04:16;5.57;;;3.95;;
38208;SDS011;24016;52.102;11.584;2022-12-07T14:07:18;7.90;;;3.42;;
38208;SDS011;24016;52.102;11.584;2022-12-07T14:12:23;6.10;;;3.30;;
38208;SDS011;24016;52.102;11.584;2022-12-07T14:14:49;6.82;;;3.00;;
38208;SDS011;24016;52.102;11.584;2022-12-07T14:17:19;9.23;;;3.22;;
38208;SDS011;24016;52.102;11.584;2022-12-07T14:24:50;7.63;;;2.80;;
38208;SDS011;24016;52.102;11.584;2022-12-07T14:27:23;7.25;;;2.95;;
38208;SDS011;24016;52.102;11.584;2022-12-07T14:29:55;9.55;;;2.45;;
38208;SDS011;24016;52.102;11.584;2022-12-07T14:32:23;5.05;;;2.35;;
38208;SDS011;24016;52.102;11.584;2022-12-07T14:34:57;4.57;;;2.30;;
38208;SDS011;24016;52.102;11.584;2022-12-07T14:39:51;5.57;;;1.80;;
38208;SDS011;24016;52.102;11.584;2022-12-07T14:42:16;5.70;;;2.35;;
38208;SDS011;24016;52.102;11.584;2022-12-07T14:44:42;7.38;;;2.90;;
38208;SDS011;24016;52.102;11.584;2022-12-07T14:47:11;5.55;;;2.80;;
38208;SDS011;24016;52.102;11.584;2022-12-07T14:49:37;6.40;;;2.83;;
38208;SDS011;24016;52.102;11.584;2022-12-07T14:52:03;11.77;;;3.42;;
38208;SDS011;24016;52.102;11.584;2022-12-07T14:54:30;5.85;;;2.90;;
38208;SDS011;24016;52.102;11.584;2022-12-07T14:56:57;7.90;;;2.55;;
38208;SDS011;24016;52.102;11.584;2022-12-07T14:59:22;5.65;;;3.13;;
38208;SDS011;24016;52.102;11.584;2022-12-07T15:01:48;5.97;;;3.20;;
38208;SDS011;24016;52.102;11.584;2022-12-07T15:04:14;5.78;;;3.15;;
38208;SDS011;24016;52.102;11.584;2022-12-07T15:06:39;8.45;;;3.13;;
38208;SDS011;24016;52.102;11.584;2022-12-07T15:09:08;10.38;;;3.63;;
38208;SDS011;24016;52.102;11.584;2022-12-07T15:11:35;6.75;;;3.50;;
38208;SDS011;24016;52.102;11.584;2022-12-07T15:14:01;8.57;;;3.90;;
38208;SDS011;24016;52.102;11.584;2022-12-07T15:16:39;10.40;;;4.10;;
38208;SDS011;24016;52.102;11.584;2022-12-07T15:19:09;6.57;;;4.03;;
38208;SDS011;24016;52.102;11.584;2022-12-07T15:21:40;6.18;;;3.65;;
38208;SDS011;24016;52.102;11.584;2022-12-07T15:24:08;7.07;;;4.10;;
38208;SDS011;24016;52.102;11.584;2022-12-07T15:26:34;6.32;;;4.30;;
38208;SDS011;24016;52.102;11.584;2022-12-07T15:29:00;11.40;;;5.05;;
38208;SDS011;24016;52.102;11.584;2022-12-07T15:31:25;6.43;;;4.45;;
38208;SDS011;24016;52.102;11.584;2022-12-07T15:33:51;6.85;;;4.78;;
38208;SDS011;24016;52.102;11.584;2022-12-07T15:36:19;6.72;;;4.75;;
38208;SDS011;24016;52.102;11.584;2022-12-07T15:38:46;7.05;;;5.75;;
38208;SDS011;24016;52.102;11.584;2022-12-07T15:41:13;10.48;;;6.03;;
38208;SDS011;24016;52.102;11.584;2022-12-07T15:43:38;7.25;;;5.60;;
38208;SDS011;24016;52.102;11.584;2022-12-07T15:46:23;8.52;;;5.85;;
38208;SDS011;24016;52.102;11.584;2022-12-07T15:48:53;8.65;;;5.72;;
38208;SDS011;24016;52.102;11.584;2022-12-07T15:51:19;9.35;;;6.43;;
38208;SDS011;24016;52.102;11.584;2022-12-07T15:53:45;12.38;;;7.22;;
38208;SDS011;24016;52.102;11.584;2022-12-07T15:56:10;11.70;;;6.75;;
38208;SDS011;24016;52.102;11.584;2022-12-07T15:58:36;11.13;;;6.57;;
38208;SDS011;24016;52.102;11.584;2022-12-07T16:01:09;9.52;;;5.55;;
38208;SDS011;24016;52.102;11.584;2022-12-07T16:03:39;10.13;;;5.55;;
38208;SDS011;24016;52.102;11.584;2022-12-07T16:06:04;10.98;;;4.63;;
38208;SDS011;24016;52.102;11.584;2022-12-07T16:08:30;9.27;;;3.42;;
38208;SDS011;24016;52.102;11.584;2022-12-07T16:10:56;8.50;;;3.08;;